createdAt,value
2022-08-21T00:00:20.913Z,19.34
2022-08-21T00:05:52.433Z,19.26
2022-08-21T00:11:24.412Z,19.10
2022-08-21T00:17:02.145Z,19.05
2022-08-21T00:22:34.343Z,18.89
2022-08-21T00:28:06.441Z,18.86
2022-08-21T00:33:37.970Z,18.75
2022-08-21T00:39:10.195Z,18.71
2022-08-21T00:44:42.428Z,18.61
2022-08-21T00:50:21.397Z,18.55
2022-08-21T00:55:46.223Z,18.44
2022-08-21T01:01:18.431Z,18.41
2022-08-21T01:06:50.137Z,18.31
2022-08-21T01:12:21.753Z,18.28
2022-08-21T01:17:59.522Z,18.21
2022-08-21T01:23:37.166Z,18.20
2022-08-21T01:29:09.130Z,18.14
2022-08-21T01:34:46.966Z,18.12
2022-08-21T01:40:18.660Z,18.06
2022-08-21T01:45:50.319Z,18.00
2022-08-21T01:51:22.465Z,17.96
2022-08-21T01:57:00.523Z,17.93
2022-08-21T02:02:32.435Z,17.85
2022-08-21T02:08:10.123Z,17.85
2022-08-21T02:13:47.822Z,17.82
2022-08-21T02:19:25.652Z,17.79
2022-08-21T02:24:57.626Z,17.75
2022-08-21T02:30:29.733Z,17.71
2022-08-21T02:36:01.588Z,17.62
2022-08-21T02:41:33.335Z,17.60
2022-08-21T02:47:05.082Z,17.52
2022-08-21T02:52:42.560Z,17.48
2022-08-21T02:58:14.785Z,17.37
2022-08-21T03:03:46.367Z,17.33
2022-08-21T03:09:18.307Z,17.26
2022-08-21T03:14:50.323Z,17.22
2022-08-21T03:20:28.345Z,17.14
2022-08-21T03:26:00.769Z,17.10
2022-08-21T03:31:32.283Z,17.03
2022-08-21T03:37:04.409Z,16.99
2022-08-21T03:39:15.280Z,16.96
2022-08-21T03:44:47.583Z,16.89
2022-08-21T03:50:19.612Z,16.89
2022-08-21T03:55:52.581Z,16.80
2022-08-21T04:01:24.592Z,16.78
2022-08-21T04:06:56.501Z,16.76
2022-08-21T04:12:28.338Z,16.75
2022-08-21T04:18:00.165Z,16.75
2022-08-21T04:23:32.009Z,16.76
2022-08-21T04:29:03.862Z,16.79
2022-08-21T04:34:35.751Z,16.82
2022-08-21T04:40:07.924Z,16.79
2022-08-21T04:45:39.674Z,16.79
2022-08-21T04:51:11.371Z,16.84
2022-08-21T04:56:42.889Z,16.86
2022-08-21T05:07:44.133Z,16.96
2022-08-21T05:13:15.702Z,17.05
2022-08-21T05:18:47.493Z,17.31
2022-08-21T05:24:19.359Z,17.51
2022-08-21T05:29:51.420Z,19.31
2022-08-21T05:35:22.920Z,20.37
2022-08-21T05:40:54.811Z,22.45
2022-08-21T05:46:26.614Z,23.37
2022-08-21T05:51:58.493Z,25.02
2022-08-21T05:57:30.126Z,25.78
2022-08-21T06:03:02.307Z,27.16
2022-08-21T06:08:34.029Z,27.78
2022-08-21T06:14:05.827Z,28.89
2022-08-21T06:19:37.427Z,29.40
2022-08-21T06:25:08.975Z,30.36
2022-08-21T06:30:40.482Z,30.78
2022-08-21T06:36:12.411Z,31.60
2022-08-21T06:41:44.101Z,31.87
2022-08-21T06:47:15.906Z,32.43
2022-08-21T06:52:48.086Z,32.74
2022-08-21T06:58:19.702Z,33.24
2022-08-21T07:03:51.335Z,33.53
2022-08-21T07:09:24.848Z,33.96
2022-08-21T07:14:55.119Z,34.15
2022-08-21T07:20:26.958Z,34.59
2022-08-21T07:25:58.732Z,34.79
2022-08-21T07:31:30.827Z,35.24
2022-08-21T07:37:09.866Z,35.44
2022-08-21T07:42:34.605Z,35.76
2022-08-21T07:48:06.177Z,35.82
2022-08-21T07:53:38.308Z,35.96
2022-08-21T07:59:10.010Z,36.02
2022-08-21T08:04:50.927Z,36.35
2022-08-21T08:10:13.618Z,36.54
2022-08-21T08:15:45.361Z,36.82
2022-08-21T08:21:17.280Z,36.90
2022-08-21T08:26:54.021Z,36.67
2022-08-21T08:32:21.083Z,36.69
2022-08-21T08:37:53.065Z,36.72
2022-08-21T08:43:24.915Z,36.64
2022-08-21T08:54:26.205Z,35.90
2022-08-21T08:59:58.013Z,35.25
2022-08-21T09:05:29.400Z,34.89
2022-08-21T09:11:01.034Z,34.86
2022-08-21T09:16:32.726Z,34.38
2022-08-21T09:33:04.229Z,34.85
2022-08-21T09:38:35.849Z,34.32
2022-08-21T09:44:08.015Z,33.63
2022-08-21T09:49:39.822Z,32.88
2022-08-21T09:55:12.376Z,32.59
2022-08-21T10:06:16.002Z,30.99
2022-08-21T10:11:47.887Z,30.44
2022-08-21T10:17:20.023Z,30.33
2022-08-21T10:22:52.190Z,29.77
2022-08-21T10:33:55.692Z,28.79
2022-08-21T10:39:35.542Z,28.70
2022-08-21T10:44:59.394Z,28.89
2022-08-21T10:50:31.172Z,28.78
2022-08-21T10:56:02.860Z,28.55
2022-08-21T11:01:34.688Z,28.33
2022-08-21T11:07:09.247Z,27.86
2022-08-21T11:12:38.233Z,27.71
2022-08-21T11:18:10.089Z,27.67
2022-08-21T11:23:41.837Z,27.69
2022-08-21T11:29:13.735Z,28.03
2022-08-21T11:34:45.402Z,28.23
2022-08-21T11:40:17.376Z,28.32
2022-08-21T11:45:49.030Z,28.37
2022-08-21T11:51:20.775Z,28.48
2022-08-21T11:56:52.564Z,28.64
2022-08-21T12:02:24.274Z,29.12
2022-08-21T12:07:59.258Z,29.22
2022-08-21T12:13:39.768Z,29.51
2022-08-21T12:18:59.812Z,29.69
2022-08-21T12:30:03.216Z,29.88
2022-08-21T12:35:35.327Z,29.99
2022-08-21T12:41:07.137Z,30.06
2022-08-21T12:46:38.486Z,30.19
2022-08-21T12:52:09.919Z,30.40
2022-08-21T12:54:31.941Z,30.44
2022-08-21T13:00:03.401Z,30.56
2022-08-21T13:05:36.124Z,30.58
2022-08-21T13:11:09.279Z,30.41
2022-08-21T13:16:39.482Z,30.03
2022-08-21T13:29:55.883Z,29.64
2022-08-21T13:35:27.325Z,29.33
2022-08-21T13:46:31.125Z,28.81
2022-08-21T13:52:02.753Z,28.73
2022-08-21T13:57:34.468Z,28.63
2022-08-21T14:08:38.362Z,28.74
2022-08-21T14:14:10.196Z,28.78
2022-08-21T14:19:41.838Z,28.96
2022-08-21T14:25:13.698Z,28.98
2022-08-21T14:30:45.534Z,28.89
2022-08-21T14:36:18.955Z,28.95
2022-08-21T14:41:50.600Z,29.02
2022-08-21T14:47:22.439Z,28.92
2022-08-21T14:52:54.166Z,28.88
2022-08-21T14:58:25.820Z,28.85
2022-08-21T15:03:57.620Z,28.75
2022-08-21T15:15:01.498Z,28.44
2022-08-21T15:20:33.018Z,28.37
2022-08-21T15:26:04.958Z,28.24
2022-08-21T15:31:36.513Z,28.24
2022-08-21T15:37:08.638Z,28.23
2022-08-21T15:42:40.136Z,28.12
2022-08-21T15:48:12.007Z,28.03
2022-08-21T15:53:44.085Z,27.99
2022-08-21T15:59:16.597Z,27.84
2022-08-21T16:04:48.287Z,27.85
2022-08-21T16:10:19.719Z,27.74
2022-08-21T16:15:51.597Z,27.65
2022-08-21T16:21:23.129Z,27.58
2022-08-21T16:26:57.903Z,27.50
2022-08-21T16:32:26.879Z,27.31
2022-08-21T16:37:58.838Z,27.27
2022-08-21T16:43:30.074Z,27.13
2022-08-21T16:49:01.507Z,27.10
2022-08-21T16:54:33.644Z,27.09
2022-08-21T17:00:05.187Z,27.05
2022-08-21T17:05:37.064Z,26.99
2022-08-21T17:11:08.720Z,26.94
2022-08-21T17:16:40.479Z,26.85
2022-08-21T17:22:11.936Z,26.75
2022-08-21T17:27:44.410Z,26.55
2022-08-21T17:33:16.057Z,26.43
2022-08-21T17:38:47.890Z,26.23
2022-08-21T17:44:19.964Z,26.13
2022-08-21T17:49:52.307Z,25.93
2022-08-21T17:55:23.940Z,25.82
2022-08-21T18:00:55.670Z,25.61
2022-08-21T18:06:27.559Z,25.47
2022-08-21T18:11:59.193Z,25.20
2022-08-21T18:17:30.872Z,25.05
2022-08-21T18:23:02.712Z,24.77
2022-08-21T18:28:34.438Z,24.57
2022-08-21T18:34:06.536Z,24.23
2022-08-21T18:39:38.458Z,24.06
2022-08-21T18:45:09.932Z,23.71
2022-08-21T18:50:41.733Z,23.52
2022-08-21T18:56:15.873Z,23.19
2022-08-21T19:01:48.248Z,23.03
2022-08-21T19:07:17.859Z,22.74
2022-08-21T19:12:49.773Z,22.59
2022-08-21T19:18:25.739Z,22.34
2022-08-21T19:23:53.620Z,22.21
2022-08-21T19:29:35.135Z,22.05
2022-08-21T19:34:58.079Z,21.97
2022-08-21T19:40:30.139Z,21.80
2022-08-21T19:46:02.171Z,21.75
2022-08-21T19:51:34.155Z,21.61
2022-08-21T19:57:06.657Z,21.50
2022-08-21T20:02:38.553Z,21.36
2022-08-21T20:10:32.408Z,21.18
2022-08-21T20:16:04.118Z,21.13
2022-08-21T20:21:43.717Z,20.97
2022-08-21T20:27:07.840Z,20.88
2022-08-21T20:32:39.627Z,20.72
2022-08-21T20:38:11.682Z,20.63
2022-08-21T20:43:43.640Z,20.48
2022-08-21T20:49:15.718Z,20.38
2022-08-21T20:54:47.877Z,20.27
2022-08-21T21:00:20.144Z,20.19
2022-08-21T21:05:51.827Z,20.06
2022-08-21T21:11:23.596Z,20.02
2022-08-21T21:16:55.315Z,19.89
2022-08-21T21:22:27.063Z,19.83
2022-08-21T21:27:58.899Z,19.73
2022-08-21T21:33:30.755Z,19.70
2022-08-21T21:39:02.813Z,19.61
2022-08-21T21:44:34.829Z,19.54
2022-08-21T21:50:06.803Z,19.45
2022-08-21T21:55:38.545Z,19.40
2022-08-21T22:01:10.953Z,19.29
2022-08-21T22:06:42.713Z,19.23
2022-08-21T22:12:14.341Z,19.17
2022-08-21T22:17:46.201Z,19.11
2022-08-21T22:23:18.117Z,19.05
2022-08-21T22:28:49.648Z,19.00
2022-08-21T22:34:21.244Z,18.86
2022-08-21T22:39:52.963Z,18.82
2022-08-21T22:45:25.033Z,18.75
2022-08-21T22:50:56.616Z,18.65
2022-08-21T22:56:28.869Z,18.62
2022-08-21T23:07:30.208Z,18.50
2022-08-21T23:13:02.176Z,18.43
2022-08-21T23:18:33.979Z,18.35
2022-08-21T23:24:05.728Z,18.31
2022-08-21T23:29:37.798Z,18.27
2022-08-21T23:35:09.647Z,18.20
2022-08-21T23:46:13.411Z,18.06
2022-08-21T23:51:45.326Z,18.06
2022-08-21T23:57:23.234Z,17.99
